Time;durP1;ratioP1;P1;durP2;ratioP2;P2;SDS_P1;SDS_P2;PMS_P1;PMS_P2;Temp;Humidity;BMP_temperature;BMP_pressure;BME280_temperature;BME280_humidity;BME280_pressure;Samples;Min_cycle;Max_cycle;Signal;HPM_P1;HPM_P2
2021/05/02 00:01:58;;;;;;;35.17;28.73;;;7.60;1.00;;;;;;5030066;28;20071;-75
2021/05/02 00:04:25;;;;;;;34.70;27.25;;;7.60;1.00;;;;;;5024118;28;20030;-75
2021/05/02 00:06:50;;;;;;;34.80;27.92;;;7.60;1.00;;;;;;5027785;28;20021;-74
2021/05/02 00:09:16;;;;;;;31.17;26.33;;;7.70;1.00;;;;;;5017657;28;20029;-73
2021/05/02 00:11:42;;;;;;;33.15;26.25;;;7.60;1.00;;;;;;5018025;28;20112;-74
2021/05/02 00:14:07;;;;;;;33.45;27.42;;;7.60;1.00;;;;;;5017792;28;20026;-74
2021/05/02 00:16:35;;;;;;;29.98;24.50;;;7.70;1.00;;;;;;5020508;28;20034;-74
2021/05/02 00:19:02;;;;;;;31.65;26.75;;;7.60;1.00;;;;;;5019508;28;20481;-75
2021/05/02 00:21:27;;;;;;;33.25;26.27;;;7.60;1.00;;;;;;5022441;28;20096;-74
2021/05/02 00:23:53;;;;;;;26.45;23.60;;;7.50;1.00;;;;;;5030588;28;20114;-74
2021/05/02 00:26:19;;;;;;;29.38;24.77;;;7.50;1.00;;;;;;5025337;28;20513;-72
2021/05/02 00:28:49;;;;;;;28.55;23.83;;;7.50;1.00;;;;;;5022267;28;20022;-73
2021/05/02 00:31:15;;;;;;;29.55;24.55;;;7.50;1.00;;;;;;5019152;28;20473;-75
2021/05/02 00:33:42;;;;;;;31.17;24.77;;;7.40;1.00;;;;;;5018464;28;20018;-76
2021/05/02 00:36:09;;;;;;;25.83;22.50;;;7.40;1.00;;;;;;5020081;28;20053;-76
2021/05/02 00:38:36;;;;;;;28.80;24.27;;;7.40;1.00;;;;;;5021411;28;20018;-76
2021/05/02 00:41:07;;;;;;;27.35;23.60;;;7.40;1.00;;;;;;5021233;28;20024;-76
2021/05/02 00:43:39;;;;;;;27.90;22.80;;;7.40;1.00;;;;;;5020226;28;20030;-75
2021/05/02 00:46:11;;;;;;;24.30;21.52;;;7.30;1.00;;;;;;5026610;28;20025;-77
2021/05/02 00:48:43;;;;;;;24.75;21.65;;;7.30;1.00;;;;;;5028260;28;20108;-78
2021/05/02 00:51:13;;;;;;;26.27;22.90;;;7.40;1.00;;;;;;5032307;28;20085;-77
2021/05/02 00:53:50;;;;;;;29.15;25.00;;;7.40;1.00;;;;;;5028004;28;20300;-75
2021/05/02 00:56:21;;;;;;;27.65;23.23;;;7.40;1.00;;;;;;5026058;28;20052;-75
2021/05/02 00:59:19;;;;;;;29.10;23.55;;;7.40;1.00;;;;;;5018811;28;20025;-76
2021/05/02 01:01:50;;;;;;;27.98;23.67;;;7.30;1.00;;;;;;4999123;28;20042;-76
2021/05/02 01:04:20;;;;;;;28.27;23.85;;;7.30;1.00;;;;;;5025782;28;20013;-75
2021/05/02 01:06:50;;;;;;;25.88;22.98;;;7.30;1.00;;;;;;5018926;28;20497;-77
2021/05/02 01:09:17;;;;;;;26.23;23.50;;;7.30;1.00;;;;;;5031037;28;20021;-77
2021/05/02 01:11:47;;;;;;;28.17;24.45;;;7.20;1.00;;;;;;5029527;28;20033;-76
2021/05/02 01:14:13;;;;;;;29.27;26.08;;;7.20;1.00;;;;;;5035379;28;20029;-76
2021/05/02 01:16:40;;;;;;;29.77;24.52;;;7.20;1.00;;;;;;5019765;28;20432;-76
2021/05/02 01:19:09;;;;;;;29.65;25.92;;;7.20;1.00;;;;;;5031108;28;20056;-76
2021/05/02 01:21:40;;;;;;;27.90;23.85;;;7.20;1.00;;;;;;5020149;28;20083;-76
2021/05/02 01:24:11;;;;;;;29.38;24.90;;;7.20;1.00;;;;;;5023741;28;20026;-77
2021/05/02 01:26:42;;;;;;;25.02;22.08;;;7.20;1.00;;;;;;5023124;28;20481;-76
2021/05/02 01:29:08;;;;;;;29.75;24.63;;;7.20;1.00;;;;;;5030779;28;20472;-76
2021/05/02 01:31:34;;;;;;;27.70;23.33;;;7.20;1.00;;;;;;5018911;28;20029;-75
2021/05/02 01:34:00;;;;;;;28.80;24.27;;;7.20;1.00;;;;;;5023541;28;20029;-75
2021/05/02 01:36:26;;;;;;;27.52;24.05;;;7.20;1.00;;;;;;5026789;28;20033;-75
2021/05/02 01:38:54;;;;;;;32.25;25.77;;;7.20;1.00;;;;;;5017223;28;20397;-76
2021/05/02 01:41:20;;;;;;;28.30;24.73;;;7.20;1.00;;;;;;5028698;28;20519;-76
2021/05/02 01:43:46;;;;;;;28.05;23.80;;;7.20;1.00;;;;;;5014033;28;20059;-76
2021/05/02 01:46:17;;;;;;;31.75;24.33;;;7.20;1.00;;;;;;5029242;28;20060;-77
2021/05/02 01:48:44;;;;;;;30.92;25.35;;;7.10;1.00;;;;;;5028525;28;20027;-76
2021/05/02 01:51:12;;;;;;;30.30;24.27;;;7.10;1.00;;;;;;5033548;28;20108;-76
2021/05/02 01:53:38;;;;;;;30.65;26.50;;;7.10;1.00;;;;;;5014681;28;20030;-76
2021/05/02 01:56:05;;;;;;;28.00;24.98;;;7.10;1.00;;;;;;5013499;28;20026;-77
2021/05/02 01:58:33;;;;;;;30.02;24.40;;;7.10;1.00;;;;;;5023863;28;20473;-75
2021/05/02 02:01:07;;;;;;;27.42;22.98;;;7.00;1.00;;;;;;5029770;28;20045;-75
2021/05/02 02:03:33;;;;;;;31.60;25.40;;;7.00;1.00;;;;;;5024123;28;20504;-75
2021/05/02 02:06:00;;;;;;;31.38;24.70;;;7.00;1.00;;;;;;5031593;28;20091;-75
2021/05/02 02:08:25;;;;;;;30.80;24.88;;;7.00;1.00;;;;;;5026485;28;20053;-75
2021/05/02 02:10:52;;;;;;;32.83;26.40;;;7.00;1.00;;;;;;5032978;28;20026;-76
2021/05/02 02:13:19;;;;;;;28.92;25.40;;;7.10;1.00;;;;;;5024160;28;20060;-74
2021/05/02 02:15:47;;;;;;;29.75;26.25;;;7.10;1.00;;;;;;5032779;28;20493;-76
2021/05/02 02:18:15;;;;;;;29.48;25.67;;;7.00;1.00;;;;;;5033245;28;20125;-76
2021/05/02 02:20:47;;;;;;;31.45;27.00;;;7.00;1.00;;;;;;5033365;28;20048;-76
2021/05/02 02:23:20;;;;;;;31.48;25.77;;;7.00;1.00;;;;;;5034092;28;20013;-76
2021/05/02 02:25:48;;;;;;;33.17;25.55;;;7.00;1.00;;;;;;5014997;28;20071;-75
2021/05/02 02:28:16;;;;;;;32.63;27.70;;;7.00;1.00;;;;;;5031098;28;20028;-76
2021/05/02 02:30:45;;;;;;;30.98;27.38;;;7.00;1.00;;;;;;5033266;28;20523;-75
2021/05/02 02:33:12;;;;;;;34.13;28.15;;;7.00;1.00;;;;;;5033191;28;20048;-76
2021/05/02 02:35:50;;;;;;;31.48;26.67;;;7.00;1.00;;;;;;5017242;28;20069;-76
2021/05/02 02:38:19;;;;;;;37.53;29.77;;;6.90;1.00;;;;;;5031049;28;20498;-76
2021/05/02 02:40:48;;;;;;;34.28;28.17;;;7.00;1.00;;;;;;5021938;28;20036;-75
2021/05/02 02:43:26;;;;;;;37.75;30.65;;;7.00;1.00;;;;;;5031815;28;20644;-77
2021/05/02 02:45:54;;;;;;;32.83;27.10;;;6.90;1.00;;;;;;5027683;28;20100;-77
2021/05/02 02:48:24;;;;;;;37.17;28.58;;;6.90;1.00;;;;;;5032469;28;20097;-75
2021/05/02 02:50:56;;;;;;;36.90;28.35;;;6.90;1.00;;;;;;5029306;28;20033;-77
2021/05/02 02:53:23;;;;;;;32.72;27.52;;;6.90;1.00;;;;;;5013506;28;20083;-76
2021/05/02 02:56:12;;;;;;;33.95;29.52;;;6.90;1.00;;;;;;5021472;28;20117;-74
2021/05/02 02:58:45;;;;;;;34.30;29.42;;;6.90;1.00;;;;;;5024430;28;20034;-76
2021/05/02 03:01:12;;;;;;;34.78;28.13;;;6.90;1.00;;;;;;5025056;28;20077;-76
2021/05/02 03:03:42;;;;;;;34.75;29.45;;;6.90;1.00;;;;;;5032313;28;20029;-76
2021/05/02 03:06:08;;;;;;;32.15;27.63;;;6.90;1.00;;;;;;5032242;28;20029;-75
2021/05/02 03:08:37;;;;;;;40.53;31.67;;;6.90;1.00;;;;;;5034462;28;20053;-76
2021/05/02 03:11:03;;;;;;;37.42;29.40;;;6.90;1.00;;;;;;5030403;28;20160;-75
2021/05/02 03:13:29;;;;;;;35.13;29.23;;;6.90;1.00;;;;;;5034445;28;20025;-76
2021/05/02 03:15:56;;;;;;;37.38;29.65;;;7.00;1.00;;;;;;5036450;28;20028;-75
2021/05/02 03:18:30;;;;;;;35.88;29.50;;;7.00;1.00;;;;;;5035725;28;20037;-75
2021/05/02 03:21:03;;;;;;;35.95;29.25;;;7.00;1.00;;;;;;5038431;28;20025;-75
2021/05/02 03:23:32;;;;;;;32.10;28.15;;;7.00;1.00;;;;;;5055292;28;20034;-75
2021/05/02 03:26:02;;;;;;;34.35;28.75;;;7.00;1.00;;;;;;5041341;28;20041;-74
2021/05/02 03:28:45;;;;;;;34.10;29.95;;;7.00;1.00;;;;;;5042710;28;20029;-76
2021/05/02 03:31:12;;;;;;;35.92;28.15;;;7.00;1.00;;;;;;5032244;28;20020;-76
2021/05/02 03:33:47;;;;;;;35.03;29.73;;;7.00;1.00;;;;;;5027331;28;20045;-76
2021/05/02 03:36:17;;;;;;;31.42;27.85;;;6.90;1.00;;;;;;5035595;28;20017;-76
2021/05/02 03:38:48;;;;;;;39.28;30.27;;;6.90;1.00;;;;;;5028431;28;20045;-76
2021/05/02 03:41:14;;;;;;;32.92;27.05;;;7.00;1.00;;;;;;5039281;28;20026;-76
2021/05/02 03:43:40;;;;;;;34.53;28.50;;;7.00;1.00;;;;;;5037109;28;20022;-76
2021/05/02 03:46:06;;;;;;;34.58;28.95;;;7.00;1.00;;;;;;5039717;28;20037;-76
2021/05/02 03:48:48;;;;;;;34.13;28.10;;;7.00;1.00;;;;;;5049495;28;20056;-75
2021/05/02 03:51:14;;;;;;;33.42;28.50;;;7.00;1.00;;;;;;5051014;28;20030;-76
2021/05/02 03:53:39;;;;;;;36.80;29.30;;;7.00;1.00;;;;;;5056683;28;20081;-75
2021/05/02 03:56:05;;;;;;;31.65;28.15;;;7.00;1.00;;;;;;5056288;28;20021;-75
2021/05/02 03:58:30;;;;;;;33.90;28.25;;;7.00;1.00;;;;;;5053888;28;20072;-75
2021/05/02 04:00:56;;;;;;;38.65;30.52;;;7.00;1.00;;;;;;5056412;28;20021;-75
2021/05/02 04:03:21;;;;;;;34.05;30.33;;;7.00;1.00;;;;;;5056217;28;20021;-75
2021/05/02 04:05:47;;;;;;;37.92;29.92;;;7.00;1.00;;;;;;5050087;28;20029;-74
2021/05/02 04:08:12;;;;;;;31.13;27.77;;;7.00;1.00;;;;;;5057541;28;20044;-74
2021/05/02 04:10:38;;;;;;;30.40;27.13;;;7.00;1.00;;;;;;5057342;28;20056;-74
2021/05/02 04:13:03;;;;;;;31.65;27.48;;;7.00;1.00;;;;;;5043686;28;20075;-74
2021/05/02 04:15:30;;;;;;;32.55;28.17;;;7.00;1.00;;;;;;5051782;28;20033;-74
2021/05/02 04:17:55;;;;;;;30.48;27.30;;;7.00;1.00;;;;;;5056180;28;20021;-75
2021/05/02 04:20:21;;;;;;;33.20;29.65;;;7.00;1.00;;;;;;5054435;28;20052;-75
2021/05/02 04:22:48;;;;;;;34.83;29.58;;;7.10;1.00;;;;;;5041627;28;20025;-74
2021/05/02 04:25:13;;;;;;;31.17;27.38;;;7.10;1.00;;;;;;5049413;28;20018;-74
2021/05/02 04:27:39;;;;;;;34.60;30.45;;;7.10;1.00;;;;;;5053942;28;20072;-74
2021/05/02 04:30:06;;;;;;;33.47;29.73;;;7.10;1.00;;;;;;5051637;28;20033;-75
2021/05/02 04:32:32;;;;;;;35.85;30.88;;;7.10;1.00;;;;;;5034734;28;20080;-74
2021/05/02 04:34:57;;;;;;;35.25;31.15;;;7.10;1.00;;;;;;5036026;28;20463;-75
2021/05/02 04:37:23;;;;;;;32.60;28.83;;;7.20;1.00;;;;;;5032988;28;20017;-76
2021/05/02 04:39:48;;;;;;;33.80;28.05;;;7.20;1.00;;;;;;5022791;28;20030;-76
2021/05/02 04:42:14;;;;;;;32.08;28.35;;;7.10;1.00;;;;;;5028285;28;20025;-76
2021/05/02 04:44:39;;;;;;;34.88;31.05;;;7.10;1.00;;;;;;5026953;28;20105;-76
2021/05/02 04:47:05;;;;;;;34.33;30.02;;;7.10;1.00;;;;;;5036654;28;20009;-76
2021/05/02 04:49:31;;;;;;;33.78;30.08;;;7.10;1.00;;;;;;5035452;28;20087;-76
2021/05/02 04:51:56;;;;;;;39.13;31.05;;;7.20;1.00;;;;;;5042047;28;20032;-76
2021/05/02 04:54:22;;;;;;;33.72;29.98;;;7.20;1.00;;;;;;5043589;28;20022;-74
2021/05/02 04:56:48;;;;;;;34.95;31.25;;;7.20;1.00;;;;;;5052789;28;20094;-74
2021/05/02 04:59:14;;;;;;;34.05;29.55;;;7.20;1.00;;;;;;5051905;28;20029;-75
2021/05/02 05:01:43;;;;;;;32.45;28.95;;;7.20;1.00;;;;;;5045390;28;20064;-75
2021/05/02 05:04:09;;;;;;;31.95;26.83;;;7.20;1.00;;;;;;5045944;28;20040;-74
2021/05/02 05:06:35;;;;;;;33.78;28.05;;;7.30;1.00;;;;;;5054930;28;20033;-75
2021/05/02 05:09:01;;;;;;;31.70;28.38;;;7.30;1.00;;;;;;5051451;28;20089;-75
2021/05/02 05:11:26;;;;;;;34.05;28.67;;;7.30;1.00;;;;;;5048302;28;20044;-75
2021/05/02 05:13:52;;;;;;;30.05;26.85;;;7.40;1.00;;;;;;5056143;28;20058;-75
2021/05/02 05:16:18;;;;;;;33.25;28.00;;;7.40;1.00;;;;;;5056024;28;20021;-74
2021/05/02 05:18:43;;;;;;;32.45;28.48;;;7.40;1.00;;;;;;5055702;28;20037;-74
2021/05/02 05:21:09;;;;;;;33.58;29.65;;;7.40;1.00;;;;;;5053087;28;20032;-74
2021/05/02 05:23:35;;;;;;;32.65;28.48;;;7.50;1.00;;;;;;5055038;28;20037;-74
2021/05/02 05:26:00;;;;;;;32.60;28.52;;;7.50;1.00;;;;;;5041605;28;20021;-74
2021/05/02 05:28:26;;;;;;;29.73;26.52;;;7.60;1.00;;;;;;5040203;28;20479;-76
2021/05/02 05:30:53;;;;;;;32.30;28.58;;;7.60;1.00;;;;;;5024091;28;20022;-76
2021/05/02 05:33:20;;;;;;;30.67;26.98;;;7.70;1.00;;;;;;5043928;28;20481;-74
2021/05/02 05:35:46;;;;;;;33.55;26.20;;;7.60;1.00;;;;;;5024625;28;20167;-74
2021/05/02 05:38:13;;;;;;;26.65;23.95;;;7.70;1.00;;;;;;5037042;28;20049;-75
2021/05/02 05:40:39;;;;;;;25.92;23.42;;;7.70;1.00;;;;;;5025240;28;20021;-75
2021/05/02 05:43:05;;;;;;;27.08;23.98;;;7.70;1.00;;;;;;5031989;28;20104;-76
2021/05/02 05:45:32;;;;;;;27.42;24.63;;;7.70;1.00;;;;;;5026473;28;20067;-74
2021/05/02 05:47:59;;;;;;;25.77;23.27;;;7.70;1.00;;;;;;5033481;28;20104;-75
2021/05/02 05:50:25;;;;;;;26.20;23.58;;;7.70;1.00;;;;;;5028480;28;20439;-76
2021/05/02 05:52:52;;;;;;;28.00;25.10;;;7.70;1.00;;;;;;5032079;28;20052;-76
2021/05/02 05:55:19;;;;;;;27.92;24.95;;;7.80;1.00;;;;;;5033863;28;20021;-76
2021/05/02 05:57:46;;;;;;;27.80;23.65;;;7.90;1.00;;;;;;5034062;28;20029;-76
2021/05/02 06:00:13;;;;;;;29.55;24.88;;;7.90;1.00;;;;;;5034228;28;20485;-76
2021/05/02 06:02:39;;;;;;;25.90;23.20;;;8.00;1.00;;;;;;5032790;28;20041;-76
2021/05/02 06:05:05;;;;;;;26.52;23.73;;;8.00;1.00;;;;;;5020233;28;20040;-76
2021/05/02 06:07:30;;;;;;;25.35;22.73;;;8.20;1.00;;;;;;5033525;28;20088;-76
2021/05/02 06:09:56;;;;;;;25.27;22.75;;;8.30;1.00;;;;;;5032901;28;20030;-75
2021/05/02 06:12:22;;;;;;;25.73;23.13;;;8.40;1.00;;;;;;5024687;28;20032;-76
2021/05/02 06:14:48;;;;;;;22.98;20.77;;;8.50;1.00;;;;;;5033608;28;20075;-75
2021/05/02 06:17:15;;;;;;;25.65;22.58;;;8.80;1.00;;;;;;5036235;28;20030;-74
2021/05/02 06:19:40;;;;;;;23.83;21.48;;;9.10;1.00;;;;;;5037569;28;20033;-76
2021/05/02 06:22:06;;;;;;;23.17;19.25;;;9.20;1.00;;;;;;5030311;28;20093;-76
2021/05/02 06:24:32;;;;;;;22.27;20.08;;;9.30;1.00;;;;;;5038169;28;20155;-76
2021/05/02 06:26:58;;;;;;;21.33;19.33;;;9.40;1.00;;;;;;5038817;28;20021;-75
2021/05/02 06:29:24;;;;;;;19.90;18.08;;;9.40;1.00;;;;;;5031033;28;20018;-75
2021/05/02 06:31:49;;;;;;;20.58;18.65;;;9.40;1.00;;;;;;5033974;28;20425;-76
2021/05/02 06:34:15;;;;;;;19.30;17.25;;;9.20;1.00;;;;;;5033528;28;20089;-77
2021/05/02 06:36:41;;;;;;;20.08;18.02;;;9.20;1.00;;;;;;5026338;28;20037;-76
2021/05/02 06:39:11;;;;;;;20.88;18.67;;;9.20;1.00;;;;;;5034319;28;20071;-76
2021/05/02 06:41:39;;;;;;;20.90;18.83;;;9.20;1.00;;;;;;5024032;28;20072;-76
2021/05/02 06:44:05;;;;;;;19.25;17.02;;;9.30;1.00;;;;;;5029496;28;20482;-76
2021/05/02 06:46:31;;;;;;;19.88;17.88;;;9.20;1.00;;;;;;5024129;28;20147;-76
2021/05/02 06:48:58;;;;;;;19.70;17.92;;;9.20;1.00;;;;;;5037266;28;20153;-76
2021/05/02 06:51:24;;;;;;;19.25;17.23;;;9.20;1.00;;;;;;5027554;28;20576;-76
2021/05/02 06:53:49;;;;;;;18.85;16.95;;;9.20;1.00;;;;;;5036533;28;20067;-75
2021/05/02 06:56:15;;;;;;;18.38;16.67;;;9.10;1.00;;;;;;5037545;28;20076;-76
2021/05/02 06:58:40;;;;;;;19.08;17.30;;;9.30;1.00;;;;;;5036951;28;20075;-76
2021/05/02 07:01:06;;;;;;;16.95;15.35;;;9.40;1.00;;;;;;5037032;28;20028;-74
2021/05/02 07:03:32;;;;;;;16.65;15.10;;;9.50;1.00;;;;;;5029631;28;20060;-76
2021/05/02 07:05:58;;;;;;;17.77;16.05;;;9.60;99.90;;;;;;5030861;28;20028;-75
2021/05/02 07:08:24;;;;;;;16.42;14.90;;;9.70;99.90;;;;;;5032188;28;20405;-76
2021/05/02 07:10:50;;;;;;;17.92;16.40;;;9.80;99.90;;;;;;5030026;28;20101;-76
2021/05/02 07:13:15;;;;;;;17.25;15.55;;;9.80;99.90;;;;;;5027177;28;20080;-75
2021/05/02 07:15:41;;;;;;;16.23;14.38;;;9.70;99.90;;;;;;5035964;28;20038;-77
2021/05/02 07:18:07;;;;;;;16.83;15.32;;;9.60;99.90;;;;;;5036303;28;20122;-76
2021/05/02 07:20:32;;;;;;;17.10;15.60;;;9.60;99.90;;;;;;5035130;28;20079;-75
2021/05/02 07:22:59;;;;;;;16.10;14.55;;;9.70;99.90;;;;;;5031625;28;20053;-76
2021/05/02 07:25:26;;;;;;;14.95;13.65;;;9.80;99.90;;;;;;5028219;28;20102;-76
2021/05/02 07:27:52;;;;;;;20.73;15.73;;;10.00;99.90;;;;;;5025602;28;20014;-76
2021/05/02 07:30:19;;;;;;;14.75;13.25;;;10.20;99.90;;;;;;5032406;28;20393;-75
2021/05/02 07:32:45;;;;;;;16.58;14.95;;;10.30;99.90;;;;;;5030038;28;20059;-74
2021/05/02 07:35:10;;;;;;;15.57;14.15;;;10.30;99.90;;;;;;5037927;28;20409;-76
2021/05/02 07:37:36;;;;;;;15.18;13.77;;;10.40;99.90;;;;;;5044352;28;20108;-76
2021/05/02 07:40:03;;;;;;;16.80;15.20;;;10.50;99.90;;;;;;5049380;28;20025;-75
2021/05/02 07:42:28;;;;;;;15.05;13.52;;;10.50;99.90;;;;;;5048916;28;20044;-76
2021/05/02 07:44:54;;;;;;;15.65;13.15;;;10.30;99.90;;;;;;5044428;28;20029;-76
2021/05/02 07:47:20;;;;;;;15.70;14.10;;;10.40;99.90;;;;;;5032358;28;20021;-77
2021/05/02 07:49:47;;;;;;;14.57;13.15;;;10.80;99.90;;;;;;5034743;28;20072;-76
2021/05/02 07:52:13;;;;;;;15.27;13.27;;;11.10;99.90;;;;;;5033619;28;20071;-76
2021/05/02 07:54:38;;;;;;;14.80;12.55;;;11.30;99.90;;;;;;5029020;28;20033;-75
2021/05/02 07:57:04;;;;;;;15.23;12.43;;;11.80;99.90;;;;;;5036626;28;20033;-75
2021/05/02 07:59:30;;;;;;;13.50;12.10;;;11.60;99.90;;;;;;5036637;28;20525;-76
2021/05/02 08:01:55;;;;;;;13.10;12.00;;;11.20;99.90;;;;;;5033066;28;20079;-77
2021/05/02 08:04:21;;;;;;;13.65;12.38;;;10.90;99.90;;;;;;5033671;28;20092;-75
2021/05/02 08:06:46;;;;;;;14.43;13.18;;;10.70;99.90;;;;;;5035000;28;20025;-75
2021/05/02 08:09:12;;;;;;;14.35;12.93;;;10.30;41.80;;;;;;5031076;28;20025;-77
2021/05/02 08:11:38;;;;;;;13.35;12.15;;;10.40;99.90;;;;;;5038381;28;20036;-76
2021/05/02 08:14:04;;;;;;;14.27;12.52;;;10.60;99.90;;;;;;5035777;28;20044;-76
2021/05/02 08:16:29;;;;;;;14.05;12.25;;;10.50;25.30;;;;;;5035147;28;20405;-76
2021/05/02 08:18:55;;;;;;;13.73;10.77;;;10.60;7.00;;;;;;5032358;28;20026;-77
2021/05/02 08:21:23;;;;;;;14.20;12.75;;;10.70;1.00;;;;;;5031148;28;20493;-76
2021/05/02 08:23:49;;;;;;;14.18;12.90;;;11.00;6.10;;;;;;5022632;28;20022;-76
2021/05/02 08:26:16;;;;;;;14.20;12.23;;;11.10;1.00;;;;;;5026502;28;20029;-76
2021/05/02 08:28:42;;;;;;;15.30;12.93;;;11.40;1.00;;;;;;5036044;28;20029;-76
2021/05/02 08:31:07;;;;;;;13.40;12.25;;;11.40;1.00;;;;;;5035702;28;20021;-75
2021/05/02 08:33:33;;;;;;;13.68;12.38;;;11.30;99.90;;;;;;5034960;28;20524;-76
2021/05/02 08:35:58;;;;;;;12.75;11.65;;;11.50;99.90;;;;;;5035291;28;20116;-77
2021/05/02 08:38:24;;;;;;;13.57;12.27;;;11.40;99.90;;;;;;5027276;28;20036;-77
2021/05/02 08:40:50;;;;;;;12.27;11.13;;;11.60;99.90;;;;;;5027128;28;20025;-77
2021/05/02 08:43:17;;;;;;;12.88;11.70;;;11.40;99.90;;;;;;5035050;28;20040;-75
2021/05/02 08:45:43;;;;;;;13.27;12.02;;;11.40;99.90;;;;;;5019544;28;20016;-76
2021/05/02 08:48:09;;;;;;;13.52;11.75;;;11.20;99.90;;;;;;5035492;28;20029;-76
2021/05/02 08:50:34;;;;;;;13.00;11.80;;;11.30;99.90;;;;;;5033962;28;20117;-75
2021/05/02 08:53:03;;;;;;;13.82;12.57;;;11.30;99.90;;;;;;5035115;28;20040;-74
2021/05/02 08:55:29;;;;;;;12.05;11.02;;;11.30;99.90;;;;;;5035681;28;20022;-77
2021/05/02 08:57:55;;;;;;;13.88;12.57;;;11.10;27.70;;;;;;5035222;28;20017;-77
2021/05/02 09:00:20;;;;;;;14.18;12.77;;;10.90;99.90;;;;;;5034287;28;20060;-76
2021/05/02 09:02:54;;;;;;;13.40;12.30;;;11.20;99.90;;;;;;5030231;28;20435;-77
2021/05/02 09:05:20;;;;;;;13.38;12.07;;;11.70;99.90;;;;;;5034163;28;20048;-77
2021/05/02 09:07:46;;;;;;;12.50;11.40;;;11.70;99.90;;;;;;5033145;28;20022;-76
2021/05/02 09:10:13;;;;;;;15.38;12.57;;;11.80;99.90;;;;;;5033704;28;20040;-76
2021/05/02 09:12:41;;;;;;;13.32;12.02;;;11.80;99.90;;;;;;5035178;28;20068;-76
2021/05/02 09:15:19;;;;;;;13.05;11.75;;;11.70;99.90;;;;;;5036322;28;20021;-76
2021/05/02 09:18:03;;;;;;;14.02;12.63;;;12.00;99.90;;;;;;5033696;28;20057;-76
2021/05/02 09:20:45;;;;;;;12.80;11.60;;;12.10;28.00;;;;;;5035154;28;20029;-76
2021/05/02 09:23:13;;;;;;;14.10;12.70;;;12.00;99.90;;;;;;5026508;28;20026;-77
2021/05/02 09:25:53;;;;;;;13.27;12.15;;;11.80;99.90;;;;;;5040199;28;20026;-77
2021/05/02 09:28:46;;;;;;;14.82;13.45;;;11.60;99.90;;;;;;5064219;28;20026;-79
2021/05/02 09:31:15;;;;;;;13.82;12.40;;;11.50;99.90;;;;;;5035652;28;20030;-78
2021/05/02 09:33:41;;;;;;;14.05;12.57;;;11.70;99.90;;;;;;5048972;28;20010;-80
2021/05/02 09:36:12;;;;;;;13.93;12.50;;;11.90;99.90;;;;;;5044000;28;20036;-78
2021/05/02 09:38:38;;;;;;;14.07;12.82;;;12.10;1.00;;;;;;5035501;28;20026;-78
2021/05/02 09:41:05;;;;;;;13.32;12.23;;;11.80;99.90;;;;;;5033683;28;20033;-80
2021/05/02 09:43:36;;;;;;;13.90;12.68;;;11.60;99.90;;;;;;5033320;28;20029;-78
2021/05/02 09:46:29;;;;;;;15.80;13.18;;;11.50;98.50;;;;;;5046410;28;20040;-80
2021/05/02 09:49:01;;;;;;;15.95;13.32;;;11.90;99.90;;;;;;5032950;28;20028;-78
2021/05/02 09:51:29;;;;;;;15.40;13.85;;;12.10;99.90;;;;;;5045059;28;20026;-78
2021/05/02 09:54:12;;;;;;;15.60;14.02;;;11.80;99.90;;;;;;5041668;28;20117;-79
2021/05/02 09:56:42;;;;;;;14.95;13.50;;;11.40;99.90;;;;;;5041045;28;20029;-80
2021/05/02 09:59:21;;;;;;;14.60;13.13;;;11.30;99.90;;;;;;5041635;28;20018;-81
2021/05/02 10:02:12;;;;;;;15.00;13.60;;;11.30;99.90;;;;;;5042781;28;20026;-78
2021/05/02 10:04:45;;;;;;;14.95;13.45;;;11.60;99.90;;;;;;5032651;28;20024;-79
2021/05/02 10:07:12;;;;;;;14.57;13.07;;;11.90;80.60;;;;;;5035867;28;20021;-80
2021/05/02 10:09:38;;;;;;;15.73;13.18;;;12.00;99.90;;;;;;5034075;28;20120;-79
2021/05/02 10:12:09;;;;;;;14.65;13.35;;;12.10;4.10;;;;;;5033360;28;20026;-81
2021/05/02 10:14:36;;;;;;;13.48;12.25;;;12.60;1.00;;;;;;5026922;28;20417;-78
2021/05/02 10:17:02;;;;;;;14.75;13.02;;;12.90;1.00;;;;;;5022591;28;20021;-77
2021/05/02 10:19:28;;;;;;;14.30;12.90;;;12.90;1.00;;;;;;5033968;28;20033;-77
2021/05/02 10:21:55;;;;;;;13.35;12.05;;;12.50;99.90;;;;;;5038872;28;20080;-78
2021/05/02 10:24:21;;;;;;;15.05;13.35;;;12.40;99.90;;;;;;5038253;28;20377;-78
2021/05/02 10:26:49;;;;;;;13.60;12.40;;;12.20;99.90;;;;;;5026303;28;20022;-77
2021/05/02 10:29:28;;;;;;;14.35;12.90;;;12.20;99.90;;;;;;5041714;28;20048;-78
2021/05/02 10:31:59;;;;;;;17.05;15.35;;;12.50;9.40;;;;;;5030943;28;20033;-77
2021/05/02 10:34:28;;;;;;;16.77;15.10;;;12.30;99.90;;;;;;5041492;28;20033;-77
2021/05/02 10:37:25;;;;;;;18.02;16.20;;;12.20;1.00;;;;;;5040783;28;20294;-76
2021/05/02 10:39:58;;;;;;;15.68;14.18;;;12.00;99.90;;;;;;5030111;28;20408;-79
2021/05/02 10:42:54;;;;;;;17.15;15.35;;;12.10;1.00;;;;;;5038594;28;20104;-76
2021/05/02 10:46:05;;;;;;;18.67;14.85;;;12.50;99.90;;;;;;5011942;28;20034;-78
2021/05/02 10:48:23;;;;;;;16.80;12.98;;;12.50;99.90;;;;;;5035684;28;20558;-78
2021/05/02 10:50:54;;;;;;;17.45;15.77;;;13.10;99.90;;;;;;5037263;28;20108;-78
2021/05/02 10:53:21;;;;;;;15.88;14.43;;;13.30;73.80;;;;;;5030284;28;20117;-78
2021/05/02 10:56:03;;;;;;;16.25;14.75;;;12.70;99.90;;;;;;5029709;28;20041;-78
2021/05/02 10:58:33;;;;;;;16.13;14.70;;;12.90;99.90;;;;;;5037789;28;20032;-77
2021/05/02 11:01:10;;;;;;;15.23;13.87;;;12.80;99.90;;;;;;5040112;28;20044;-78
2021/05/02 11:03:38;;;;;;;16.70;14.90;;;12.60;99.90;;;;;;5030512;28;20325;-78
2021/05/02 11:06:39;;;;;;;14.52;13.23;;;12.80;1.00;;;;;;5034619;28;20080;-81
2021/05/02 11:09:10;;;;;;;14.93;13.63;;;12.60;99.90;;;;;;5026203;28;20037;-78
2021/05/02 11:11:38;;;;;;;15.07;13.65;;;12.60;1.00;;;;;;5037317;28;20303;-77
2021/05/02 11:14:07;;;;;;;14.90;13.32;;;12.80;99.90;;;;;;5038509;28;20021;-77
2021/05/02 11:16:50;;;;;;;14.35;13.05;;;13.30;99.90;;;;;;5026595;28;20029;-77
2021/05/02 11:19:23;;;;;;;14.88;13.38;;;13.30;99.90;;;;;;5036433;28;20056;-79
2021/05/02 11:21:48;;;;;;;15.13;13.73;;;13.00;1.00;;;;;;5017834;28;20056;-75
2021/05/02 11:24:16;;;;;;;16.13;14.70;;;12.50;1.00;;;;;;5032618;28;20570;-76
2021/05/02 11:27:05;;;;;;;14.05;11.57;;;12.10;99.90;;;;;;5019326;28;20096;-78
2021/05/02 11:29:51;;;;;;;16.48;14.13;;;11.70;99.90;;;;;;5030246;28;20076;-77
2021/05/02 11:32:26;;;;;;;17.58;15.82;;;11.20;99.90;;;;;;5021112;28;20048;-77
2021/05/02 11:34:54;;;;;;;17.05;15.45;;;11.00;1.00;;;;;;5037246;28;20021;-77
2021/05/02 11:37:44;;;;;;;17.30;15.48;;;10.80;1.00;;;;;;5029238;28;20060;-78
2021/05/02 11:40:27;;;;;;;17.10;15.50;;;10.50;99.90;;;;;;5024946;28;20088;-77
2021/05/02 11:42:57;;;;;;;18.50;16.80;;;10.10;99.90;;;;;;5024726;28;20021;-78
2021/05/02 11:45:51;;;;;;;17.08;15.65;;;10.00;99.90;;;;;;5035046;28;20026;-79
2021/05/02 11:48:28;;;;;;;18.33;16.52;;;10.10;99.90;;;;;;5039637;28;20104;-77
2021/05/02 11:51:05;;;;;;;17.15;15.48;;;10.50;99.90;;;;;;5025375;28;20373;-76
2021/05/02 11:53:56;;;;;;;14.88;13.55;;;11.10;99.90;;;;;;5038007;28;20825;-77
2021/05/02 11:56:25;;;;;;;15.63;14.32;;;11.40;55.50;;;;;;5040408;28;20068;-76
2021/05/02 11:58:56;;;;;;;11.00;10.10;;;11.60;2.30;;;;;;5050773;28;20188;-77
2021/05/02 12:01:27;;;;;;;9.75;8.95;;;11.50;1.00;;;;;;5049459;28;20052;-76
2021/05/02 12:03:54;;;;;;;10.13;9.23;;;11.30;39.20;;;;;;5033734;28;20049;-77
2021/05/02 12:06:28;;;;;;;9.75;8.95;;;11.60;16.10;;;;;;5032045;28;20017;-78
2021/05/02 12:08:55;;;;;;;10.40;9.43;;;11.90;1.00;;;;;;5039527;28;20021;-77
2021/05/02 12:11:21;;;;;;;8.80;8.10;;;12.00;99.90;;;;;;5037875;28;20040;-77
2021/05/02 12:13:50;;;;;;;7.40;6.80;;;12.10;96.30;;;;;;5033244;28;20500;-77
2021/05/02 12:16:29;;;;;;;9.35;8.45;;;12.20;99.90;;;;;;5027765;28;20022;-76
2021/05/02 12:19:02;;;;;;;9.35;8.57;;;12.00;49.10;;;;;;5022149;28;20021;-76
2021/05/02 12:21:43;;;;;;;9.00;8.20;;;11.70;99.90;;;;;;5026805;28;20068;-76
2021/05/02 12:24:26;;;;;;;8.57;7.90;;;12.00;86.60;;;;;;5032699;28;20112;-77
2021/05/02 12:27:07;;;;;;;8.88;8.05;;;11.80;1.00;;;;;;5027803;28;20056;-77
2021/05/02 12:29:34;;;;;;;10.70;8.93;;;11.80;11.20;;;;;;5036430;28;20045;-77
2021/05/02 12:32:07;;;;;;;10.15;9.35;;;11.70;1.00;;;;;;5022345;28;20054;-77
2021/05/02 12:34:33;;;;;;;9.25;8.45;;;11.50;99.90;;;;;;5036166;28;20030;-78
2021/05/02 12:37:13;;;;;;;8.75;8.05;;;11.20;99.90;;;;;;5036391;28;20029;-79
2021/05/02 12:39:41;;;;;;;10.30;9.35;;;10.70;1.00;;;;;;5032378;28;20421;-77
2021/05/02 12:42:08;;;;;;;9.70;8.77;;;10.80;92.60;;;;;;5034692;28;20040;-76
2021/05/02 12:44:35;;;;;;;7.32;6.70;;;11.00;99.90;;;;;;5040664;28;20017;-76
2021/05/02 12:47:15;;;;;;;8.10;7.50;;;11.10;53.00;;;;;;5023258;28;20025;-77
2021/05/02 12:49:56;;;;;;;7.28;6.57;;;11.40;15.30;;;;;;5030142;28;20041;-75
2021/05/02 12:52:29;;;;;;;4.88;4.47;;;11.90;1.00;;;;;;5044705;28;20025;-77